KAXN/AXN METAR and TAF weather

Enter ICAO airport designator
Station Type Date Time Source
KAXN METAR 2019/08/24 20:53 UTC NOAA

KAXN 242053Z AUTO 15014G24KT 10SM BKN044 26/13 A3012 RMK AO2 PK WND 15028/1959 SLP194 T02610133 56012


Station Type Date Time Source
KAXN Decoded METAR 2019/08/24 20:53 UTC NOAA

Station name not available
Aug 24, 2019 - 04:53 PM EDT / 2019.08.24 2053 UTC
Wind: from the SSE (150 degrees) at 16 MPH (14 KT) gusting to 28 MPH (24 KT):0
Visibility: 10 mile(s):0
Sky conditions: mostly cloudy
Temperature: 79.0 F (26.1 C)
Dew Point: 55.9 F (13.3 C)
Relative Humidity: 45%
Pressure (altimeter): 30.12 in. Hg (1019 hPa)
Pressure tendency: 0.04 inches (1.2 hPa) lower than three hours ago
ob: KAXN 242053Z AUTO 15014G24KT 10SM BKN044 26/13 A3012 RMK AO2 PK WND 15028/1959 SLP194 T02610133 56012
cycle: 21

Station Type Date Time Source
KAXN TAF 2019/08/24 18:22 UTC NOAA

TAF KAXN 241720Z 2418/2518 17016G26KT P6SM FEW050 SCT250
FM250100 15012KT P6SM BKN250
FM250800 16012G22KT P6SM SCT040 BKN100
FM251300 16013G24KT P6SM BKN035 OVC080

Example: see airport list